createdAt,value
2018-01-18T00:00:15.843Z,997.53
2018-01-18T00:00:51.156Z,997.56
2018-01-18T00:01:26.631Z,997.64
2018-01-18T00:02:02.146Z,997.54
2018-01-18T00:02:37.518Z,997.55
2018-01-18T00:03:13.024Z,997.53
2018-01-18T00:03:48.100Z,997.56
2018-01-18T00:04:23.630Z,997.52
2018-01-18T00:05:03.405Z,997.52
2018-01-18T00:05:38.825Z,997.52
2018-01-18T00:06:13.908Z,997.50
2018-01-18T00:06:50.908Z,997.61
2018-01-18T00:07:26.193Z,997.54
2018-01-18T00:08:01.385Z,997.53
2018-01-18T00:08:36.974Z,997.56
2018-01-18T00:09:12.375Z,997.51
2018-01-18T00:09:47.475Z,997.46
2018-01-18T00:10:23.111Z,997.45
2018-01-18T00:10:58.629Z,997.48
2018-01-18T00:11:34.064Z,997.53
2018-01-18T00:12:09.436Z,997.41
2018-01-18T00:12:44.836Z,997.49
2018-01-18T00:13:19.913Z,997.47
2018-01-18T00:13:55.026Z,997.50
2018-01-18T00:14:30.624Z,997.44
2018-01-18T00:15:06.025Z,997.50
2018-01-18T00:15:41.098Z,997.42
2018-01-18T00:16:16.796Z,997.42
2018-01-18T00:16:52.079Z,997.45
2018-01-18T00:17:27.179Z,997.40
2018-01-18T00:18:02.367Z,997.36
2018-01-18T00:18:37.769Z,997.34
2018-01-18T00:19:13.354Z,997.33
2018-01-18T00:19:48.586Z,997.24
2018-01-18T00:20:23.885Z,997.26
2018-01-18T00:20:58.987Z,997.26
2018-01-18T00:21:34.568Z,997.27
2018-01-18T00:22:09.869Z,997.29
2018-01-18T00:22:45.241Z,997.26
2018-01-18T00:23:20.643Z,997.20
2018-01-18T00:23:56.220Z,997.17
2018-01-18T00:24:31.660Z,997.17
2018-01-18T00:25:07.231Z,997.19
2018-01-18T00:25:42.952Z,997.14
2018-01-18T00:26:18.535Z,997.17
2018-01-18T00:26:53.733Z,997.14
2018-01-18T00:27:28.925Z,997.11
2018-01-18T00:28:04.239Z,997.18
2018-01-18T00:28:39.620Z,997.14
2018-01-18T00:29:14.920Z,997.15
2018-01-18T00:29:52.521Z,997.19
2018-01-18T00:30:28.131Z,997.12
2018-01-18T00:31:03.205Z,997.17
2018-01-18T00:31:38.429Z,997.16
2018-01-18T00:32:13.707Z,997.14
2018-01-18T00:32:49.116Z,997.12
2018-01-18T00:33:24.490Z,997.12
2018-01-18T00:34:00.090Z,997.08
2018-01-18T00:34:35.067Z,997.08
2018-01-18T00:35:10.406Z,997.11
2018-01-18T00:35:45.680Z,997.04
2018-01-18T00:36:21.300Z,997.03
2018-01-18T00:36:56.872Z,996.99
2018-01-18T00:37:32.280Z,997.01
2018-01-18T00:38:07.653Z,996.98
2018-01-18T00:38:43.252Z,996.97
2018-01-18T00:39:18.641Z,996.97
2018-01-18T00:39:55.561Z,996.98
2018-01-18T00:40:31.041Z,996.97
2018-01-18T00:41:06.361Z,996.97
2018-01-18T00:41:41.940Z,996.93
2018-01-18T00:42:17.140Z,996.87
2018-01-18T00:42:52.824Z,996.90
2018-01-18T00:43:28.025Z,996.83
2018-01-18T00:44:03.410Z,996.81
2018-01-18T00:44:39.107Z,996.86
2018-01-18T00:45:15.609Z,996.87
2018-01-18T00:45:51.814Z,996.82
2018-01-18T00:46:27.089Z,996.79
2018-01-18T00:47:02.514Z,996.78
2018-01-18T00:47:37.682Z,996.75
2018-01-18T00:48:13.081Z,996.78
2018-01-18T00:48:48.354Z,996.73
2018-01-18T00:49:23.664Z,996.75
2018-01-18T00:49:59.164Z,996.71
2018-01-18T00:50:34.860Z,996.68
2018-01-18T00:51:10.546Z,996.66
2018-01-18T00:51:45.750Z,996.68
2018-01-18T00:52:21.325Z,996.65
2018-01-18T00:52:56.739Z,996.63
2018-01-18T00:53:32.006Z,996.63
2018-01-18T00:54:07.516Z,996.60
2018-01-18T00:54:42.778Z,996.59
2018-01-18T00:55:18.304Z,996.58
2018-01-18T00:55:53.703Z,996.64
2018-01-18T00:56:29.191Z,996.61
2018-01-18T00:57:04.564Z,996.63
2018-01-18T00:57:40.075Z,996.64
2018-01-18T00:58:15.448Z,996.63
2018-01-18T00:58:50.637Z,996.63
2018-01-18T00:59:25.804Z,996.54
2018-01-18T01:00:01.142Z,996.51
2018-01-18T01:00:38.013Z,996.58
2018-01-18T01:01:13.221Z,996.55
2018-01-18T01:01:48.609Z,996.54
2018-01-18T01:02:24.212Z,996.57
2018-01-18T01:02:59.490Z,996.47
2018-01-18T01:03:34.716Z,996.49
2018-01-18T01:04:09.976Z,996.51
2018-01-18T01:04:45.485Z,996.48
2018-01-18T01:05:20.664Z,996.52
2018-01-18T01:05:56.263Z,996.46
2018-01-18T01:06:31.540Z,996.40
2018-01-18T01:07:06.838Z,996.36
2018-01-18T01:07:42.403Z,996.41
2018-01-18T01:08:17.713Z,996.37
2018-01-18T01:08:53.191Z,996.31
2018-01-18T01:09:28.492Z,996.32
2018-01-18T01:10:04.104Z,996.41
2018-01-18T01:10:40.802Z,996.35
2018-01-18T01:11:15.963Z,996.34
2018-01-18T01:11:51.270Z,996.38
2018-01-18T01:12:26.460Z,996.31
2018-01-18T01:13:01.761Z,996.35
2018-01-18T01:13:37.618Z,996.34
2018-01-18T01:14:12.808Z,996.33
2018-01-18T01:14:48.377Z,996.39
2018-01-18T01:15:23.505Z,996.30
2018-01-18T01:15:58.778Z,996.28
2018-01-18T01:16:34.179Z,996.21
2018-01-18T01:17:09.342Z,996.24
2018-01-18T01:17:44.662Z,996.22
2018-01-18T01:18:19.754Z,996.21
2018-01-18T01:18:55.354Z,996.14
2018-01-18T01:19:30.726Z,996.17
2018-01-18T01:20:06.119Z,996.11
2018-01-18T01:20:42.018Z,996.10
2018-01-18T01:21:17.325Z,996.14
2018-01-18T01:21:52.500Z,996.02
2018-01-18T01:22:27.698Z,996.03
2018-01-18T01:23:02.777Z,996.05
2018-01-18T01:23:37.983Z,996.03
2018-01-18T01:24:13.674Z,996.05
2018-01-18T01:24:49.270Z,996.08
2018-01-18T01:25:24.773Z,996.04
2018-01-18T01:26:00.890Z,996.13
2018-01-18T01:26:38.969Z,996.06
2018-01-18T01:27:14.280Z,996.03
2018-01-18T01:27:49.877Z,996.00
2018-01-18T01:28:25.182Z,996.01
2018-01-18T01:29:00.565Z,995.98
2018-01-18T01:29:35.673Z,995.93
2018-01-18T01:30:10.876Z,995.93
2018-01-18T01:30:46.410Z,995.95
2018-01-18T01:31:21.986Z,995.89
2018-01-18T01:31:57.512Z,995.89
2018-01-18T01:32:32.789Z,995.90
2018-01-18T01:33:08.197Z,995.92
2018-01-18T01:33:43.580Z,995.86
2018-01-18T01:34:19.192Z,995.86
2018-01-18T01:34:54.468Z,995.83
2018-01-18T01:35:29.908Z,995.84
2018-01-18T01:36:05.403Z,995.79
2018-01-18T01:36:41.302Z,995.79
2018-01-18T01:37:16.591Z,995.76
2018-01-18T01:37:51.700Z,995.71
2018-01-18T01:38:26.886Z,995.64
2018-01-18T01:39:02.585Z,995.54
2018-01-18T01:39:38.019Z,995.63
2018-01-18T01:40:13.333Z,995.60
2018-01-18T01:40:48.630Z,995.58
2018-01-18T01:41:23.742Z,995.59
2018-01-18T01:41:59.144Z,995.57
2018-01-18T01:42:34.753Z,995.62
2018-01-18T01:43:09.936Z,995.59
2018-01-18T01:43:45.252Z,995.56
2018-01-18T01:44:20.526Z,995.54
2018-01-18T01:44:55.830Z,995.48
2018-01-18T01:45:31.161Z,995.48
2018-01-18T01:46:09.864Z,995.53
2018-01-18T01:46:45.155Z,995.52
2018-01-18T01:47:20.674Z,995.45
2018-01-18T01:47:56.163Z,995.44
2018-01-18T01:48:31.579Z,995.48
2018-01-18T01:49:06.878Z,995.48
2018-01-18T01:49:42.092Z,995.43
2018-01-18T01:50:17.298Z,995.44
2018-01-18T01:50:53.826Z,995.37
2018-01-18T01:51:29.406Z,995.47
2018-01-18T01:52:04.928Z,995.50
2018-01-18T01:52:40.312Z,995.53
2018-01-18T01:53:15.545Z,995.52
2018-01-18T01:53:51.040Z,995.45
2018-01-18T01:54:26.439Z,995.44
2018-01-18T01:55:01.844Z,995.48
2018-01-18T01:55:36.974Z,995.45
2018-01-18T01:56:12.277Z,995.38
2018-01-18T01:56:48.087Z,995.39
2018-01-18T01:57:23.492Z,995.43
2018-01-18T01:57:58.999Z,995.36
2018-01-18T01:58:34.188Z,995.36
2018-01-18T01:59:09.513Z,995.29
2018-01-18T01:59:44.914Z,995.25
2018-01-18T02:00:20.335Z,995.23
2018-01-18T02:00:58.238Z,995.24
2018-01-18T02:01:33.682Z,995.19
2018-01-18T02:02:09.166Z,995.17
2018-01-18T02:02:44.672Z,995.13
2018-01-18T02:03:20.255Z,995.10
2018-01-18T02:03:55.568Z,995.08
2018-01-18T02:04:31.066Z,995.08
2018-01-18T02:05:06.387Z,994.96
2018-01-18T02:05:41.993Z,994.97
2018-01-18T02:06:17.650Z,994.99
2018-01-18T02:06:52.935Z,994.94
2018-01-18T02:07:28.252Z,994.94
2018-01-18T02:08:03.432Z,994.94
2018-01-18T02:08:39.130Z,995.00
2018-01-18T02:09:14.420Z,994.98
2018-01-18T02:09:49.653Z,994.96
2018-01-18T02:10:25.156Z,994.96
2018-01-18T02:11:00.382Z,994.95
2018-01-18T02:11:35.970Z,994.88
2018-01-18T02:12:11.400Z,994.91
2018-01-18T02:12:47.185Z,994.87
2018-01-18T02:13:23.407Z,994.88
2018-01-18T02:13:58.700Z,994.86
2018-01-18T02:14:34.030Z,994.85
2018-01-18T02:15:09.432Z,994.83
2018-01-18T02:15:45.968Z,994.79
2018-01-18T02:16:21.179Z,994.80
2018-01-18T02:16:56.284Z,994.76
2018-01-18T02:17:31.559Z,994.78
2018-01-18T02:18:06.967Z,994.70
2018-01-18T02:18:42.352Z,994.70
2018-01-18T02:19:18.076Z,994.70
2018-01-18T02:19:53.754Z,994.67
2018-01-18T02:20:29.166Z,994.68
2018-01-18T02:21:06.875Z,994.62
2018-01-18T02:21:42.392Z,994.54
2018-01-18T02:22:17.882Z,994.60
2018-01-18T02:22:53.608Z,994.57
2018-01-18T02:23:29.089Z,994.55
2018-01-18T02:24:04.310Z,994.50
2018-01-18T02:24:40.298Z,994.53
2018-01-18T02:25:15.810Z,994.50
2018-01-18T02:25:51.186Z,994.47
2018-01-18T02:26:26.733Z,994.42
2018-01-18T02:27:02.019Z,994.44
2018-01-18T02:27:37.525Z,994.43
2018-01-18T02:28:12.820Z,994.36
2018-01-18T02:28:48.035Z,994.35
2018-01-18T02:29:23.417Z,994.30
2018-01-18T02:29:58.726Z,994.25
2018-01-18T02:30:34.210Z,994.17
2018-01-18T02:31:09.963Z,994.21
2018-01-18T02:31:45.329Z,994.13
2018-01-18T02:32:20.837Z,994.12
2018-01-18T02:32:56.322Z,994.13
2018-01-18T02:33:31.630Z,994.07
2018-01-18T02:34:06.638Z,994.07
2018-01-18T02:34:41.946Z,994.05
2018-01-18T02:35:17.418Z,994.06
2018-01-18T02:35:52.635Z,994.02
2018-01-18T02:36:28.148Z,994.00
2018-01-18T02:37:03.650Z,993.95
2018-01-18T02:37:38.929Z,993.90
2018-01-18T02:38:14.330Z,993.94
2018-01-18T02:38:49.522Z,993.88
2018-01-18T02:39:25.025Z,993.89
2018-01-18T02:40:00.712Z,993.83
2018-01-18T02:40:36.624Z,993.85
2018-01-18T02:41:12.224Z,993.85
2018-01-18T02:41:47.938Z,993.89
2018-01-18T02:42:23.305Z,993.84
2018-01-18T02:42:58.808Z,993.84
2018-01-18T02:43:35.091Z,993.78
2018-01-18T02:44:13.802Z,993.70
2018-01-18T02:44:48.992Z,993.67
2018-01-18T02:45:24.386Z,993.68
2018-01-18T02:45:59.690Z,993.60
2018-01-18T02:46:35.224Z,993.63
2018-01-18T02:47:10.600Z,993.62
2018-01-18T02:47:48.202Z,993.56
2018-01-18T02:48:23.788Z,993.61
2018-01-18T02:48:59.104Z,993.52
2018-01-18T02:49:34.482Z,993.48
2018-01-18T02:50:09.605Z,993.48
2018-01-18T02:50:44.978Z,993.47
2018-01-18T02:51:20.408Z,993.45
2018-01-18T02:51:55.795Z,993.46
2018-01-18T02:52:31.108Z,993.46
2018-01-18T02:53:06.392Z,993.40
2018-01-18T02:53:41.702Z,993.40
2018-01-18T02:54:17.002Z,993.32
2018-01-18T02:54:52.216Z,993.41
2018-01-18T02:55:27.408Z,993.38
2018-01-18T02:56:02.628Z,993.36
2018-01-18T02:56:37.833Z,993.37
2018-01-18T02:57:13.141Z,993.33
2018-01-18T02:57:48.331Z,993.32
2018-01-18T02:58:23.547Z,993.33
2018-01-18T02:58:58.829Z,993.42
2018-01-18T02:59:34.338Z,993.37
2018-01-18T03:00:09.436Z,993.32
2018-01-18T03:00:46.845Z,993.30
2018-01-18T03:01:22.267Z,993.41
2018-01-18T03:01:57.587Z,993.33
2018-01-18T03:02:32.963Z,993.27
2018-01-18T03:03:08.382Z,993.36
2018-01-18T03:03:43.564Z,993.32
2018-01-18T03:04:18.986Z,993.44
2018-01-18T03:04:54.367Z,993.40
2018-01-18T03:05:29.782Z,993.36
2018-01-18T03:06:05.071Z,993.31
2018-01-18T03:06:40.424Z,993.33
2018-01-18T03:07:16.294Z,993.38
2018-01-18T03:07:51.603Z,993.41
2018-01-18T03:08:26.693Z,993.34
2018-01-18T03:09:02.111Z,993.34
2018-01-18T03:09:37.300Z,993.28
2018-01-18T03:10:12.413Z,993.19
2018-01-18T03:10:47.704Z,993.16
2018-01-18T03:11:24.335Z,993.07
2018-01-18T03:11:59.749Z,993.09
2018-01-18T03:12:35.960Z,993.03
2018-01-18T03:13:11.445Z,993.02
2018-01-18T03:13:46.557Z,993.01
2018-01-18T03:14:21.932Z,992.99
2018-01-18T03:14:57.353Z,993.05
2018-01-18T03:15:32.833Z,993.10
2018-01-18T03:16:08.148Z,993.03
2018-01-18T03:16:43.562Z,993.16
2018-01-18T03:17:19.094Z,993.01
2018-01-18T03:17:54.370Z,992.88
2018-01-18T03:18:29.796Z,992.94
2018-01-18T03:19:05.176Z,992.91
2018-01-18T03:19:40.691Z,992.81
2018-01-18T03:20:15.870Z,992.78
2018-01-18T03:20:51.279Z,992.75
2018-01-18T03:21:26.560Z,992.75
2018-01-18T03:22:02.092Z,992.75
2018-01-18T03:22:37.471Z,992.69
2018-01-18T03:23:12.886Z,992.62
2018-01-18T03:23:48.662Z,992.58
2018-01-18T03:24:23.983Z,992.51
2018-01-18T03:25:02.499Z,992.48
2018-01-18T03:25:38.242Z,992.46
2018-01-18T03:26:13.525Z,992.42
2018-01-18T03:26:49.081Z,992.48
2018-01-18T03:27:24.460Z,992.36
2018-01-18T03:27:59.866Z,992.36
2018-01-18T03:28:35.051Z,992.37
2018-01-18T03:29:10.371Z,992.26
2018-01-18T03:29:45.964Z,992.23
2018-01-18T03:30:21.188Z,992.27
2018-01-18T03:30:56.377Z,992.20
2018-01-18T03:31:31.505Z,992.16
2018-01-18T03:32:06.516Z,992.13
2018-01-18T03:32:42.851Z,992.16
2018-01-18T03:33:18.242Z,992.08
2018-01-18T03:33:53.745Z,992.13
2018-01-18T03:34:29.040Z,992.03
2018-01-18T03:35:04.258Z,992.01
2018-01-18T03:35:39.639Z,992.00
2018-01-18T03:36:15.046Z,992.00
2018-01-18T03:36:50.966Z,992.02
2018-01-18T03:37:26.481Z,991.90
2018-01-18T03:38:01.873Z,991.98
2018-01-18T03:38:37.290Z,991.98
2018-01-18T03:39:12.879Z,991.88
2018-01-18T03:39:48.497Z,991.89
2018-01-18T03:40:23.785Z,991.82
2018-01-18T03:40:58.902Z,991.83
2018-01-18T03:41:34.306Z,991.77
2018-01-18T03:42:09.842Z,991.79
2018-01-18T03:42:45.754Z,991.82
2018-01-18T03:43:21.171Z,991.75
2018-01-18T03:43:56.765Z,991.73
2018-01-18T03:44:32.073Z,991.75
2018-01-18T03:45:09.653Z,991.73
2018-01-18T03:45:45.164Z,991.76
2018-01-18T03:46:20.841Z,991.71
2018-01-18T03:46:55.980Z,991.68
2018-01-18T03:47:31.373Z,991.68
2018-01-18T03:48:06.587Z,991.65
2018-01-18T03:48:41.965Z,991.63
2018-01-18T03:49:17.282Z,991.61
2018-01-18T03:49:52.681Z,991.55
2018-01-18T03:50:28.396Z,991.47
2018-01-18T03:51:03.880Z,991.46
2018-01-18T03:51:39.201Z,991.41
2018-01-18T03:52:14.616Z,991.43
2018-01-18T03:52:49.939Z,991.33
2018-01-18T03:53:25.026Z,991.38
2018-01-18T03:54:00.529Z,991.24
2018-01-18T03:54:35.938Z,991.25
2018-01-18T03:55:11.061Z,991.23
2018-01-18T03:55:46.551Z,991.27
2018-01-18T03:56:21.863Z,991.18
2018-01-18T03:56:57.057Z,991.19
2018-01-18T03:57:32.203Z,991.20
2018-01-18T03:58:07.490Z,991.10
2018-01-18T03:58:42.909Z,991.05
2018-01-18T03:59:18.345Z,991.10
2018-01-18T03:59:53.779Z,991.06
2018-01-18T04:00:28.964Z,991.10
2018-01-18T04:01:05.980Z,991.14
2018-01-18T04:01:42.975Z,990.95
2018-01-18T04:02:18.420Z,990.79
2018-01-18T04:02:53.616Z,990.79
2018-01-18T04:03:28.958Z,990.75
2018-01-18T04:04:04.240Z,990.72
2018-01-18T04:04:39.454Z,990.69
2018-01-18T04:05:14.731Z,990.62
2018-01-18T04:05:50.050Z,990.60
2018-01-18T04:06:25.347Z,990.65
2018-01-18T04:07:01.062Z,990.62
2018-01-18T04:07:36.474Z,990.53
2018-01-18T04:08:11.781Z,990.50
2018-01-18T04:08:47.368Z,990.49
2018-01-18T04:09:22.785Z,990.50
2018-01-18T04:09:58.071Z,990.41
2018-01-18T04:10:33.383Z,990.50
2018-01-18T04:11:08.770Z,990.34
2018-01-18T04:11:43.794Z,990.32
2018-01-18T04:12:18.999Z,990.25
2018-01-18T04:12:54.609Z,990.24
2018-01-18T04:13:29.902Z,990.20
2018-01-18T04:14:05.210Z,990.14
2018-01-18T04:14:40.697Z,990.06
2018-01-18T04:15:16.011Z,990.10
2018-01-18T04:15:51.417Z,990.00
2018-01-18T04:16:27.128Z,990.03
2018-01-18T04:17:02.415Z,989.97
2018-01-18T04:17:37.950Z,990.05
2018-01-18T04:18:13.536Z,989.99
2018-01-18T04:18:48.755Z,990.02
2018-01-18T04:19:24.336Z,989.98
2018-01-18T04:19:59.658Z,989.90
2018-01-18T04:20:35.352Z,989.80
2018-01-18T04:21:10.885Z,989.84
2018-01-18T04:21:46.269Z,989.85
2018-01-18T04:22:21.509Z,989.78
2018-01-18T04:22:56.793Z,989.72
2018-01-18T04:23:31.919Z,989.72
2018-01-18T04:24:07.100Z,989.68
2018-01-18T04:24:42.512Z,989.69
2018-01-18T04:25:17.902Z,989.56
2018-01-18T04:25:53.019Z,989.56
2018-01-18T04:26:28.306Z,989.70
2018-01-18T04:27:03.618Z,989.46
2018-01-18T04:27:38.962Z,989.45
2018-01-18T04:28:14.375Z,989.49
2018-01-18T04:28:49.666Z,989.44
2018-01-18T04:29:25.090Z,989.39
2018-01-18T04:30:00.581Z,989.27
2018-01-18T04:30:36.901Z,989.25
2018-01-18T04:31:13.100Z,989.29
2018-01-18T04:31:51.331Z,989.25
2018-01-18T04:32:26.666Z,989.18
2018-01-18T04:33:02.085Z,989.08
2018-01-18T04:33:37.487Z,989.15
2018-01-18T04:34:12.811Z,989.04
2018-01-18T04:34:48.013Z,988.89
2018-01-18T04:35:23.257Z,988.86
2018-01-18T04:35:58.489Z,988.86
2018-01-18T04:36:33.811Z,988.77
2018-01-18T04:37:09.506Z,988.74
2018-01-18T04:37:44.849Z,988.71
2018-01-18T04:38:20.144Z,988.77
2018-01-18T04:38:55.651Z,988.48
2018-01-18T04:39:31.049Z,988.50
2018-01-18T04:40:06.374Z,988.48
2018-01-18T04:40:42.474Z,988.51
2018-01-18T04:41:18.101Z,988.41
2018-01-18T04:41:53.379Z,988.41
2018-01-18T04:42:28.701Z,988.50
2018-01-18T04:43:03.828Z,988.33
2018-01-18T04:43:39.448Z,988.30
2018-01-18T04:44:14.733Z,988.40
2018-01-18T04:44:50.047Z,988.16
2018-01-18T04:45:25.140Z,988.11
2018-01-18T04:46:00.656Z,988.10
2018-01-18T04:46:35.835Z,988.10
2018-01-18T04:47:11.152Z,988.14
2018-01-18T04:47:46.562Z,988.08
2018-01-18T04:48:21.974Z,987.98
2018-01-18T04:48:57.363Z,987.92
2018-01-18T04:49:32.777Z,988.14
2018-01-18T04:50:07.959Z,987.93
2018-01-18T04:50:44.174Z,987.78
2018-01-18T04:51:19.557Z,987.76
2018-01-18T04:51:54.869Z,987.75
2018-01-18T04:52:30.162Z,987.72
2018-01-18T04:53:05.309Z,987.82
2018-01-18T04:53:40.699Z,987.70
2018-01-18T04:54:16.019Z,987.62
2018-01-18T04:54:51.702Z,987.69
2018-01-18T04:55:26.914Z,987.63
2018-01-18T04:56:02.239Z,987.57
2018-01-18T04:56:37.554Z,987.58
2018-01-18T04:57:13.036Z,987.46
2018-01-18T04:57:48.183Z,987.52
2018-01-18T04:58:23.162Z,987.46
2018-01-18T04:58:58.689Z,987.42
2018-01-18T04:59:34.060Z,987.40
2018-01-18T05:00:09.277Z,987.57
2018-01-18T05:00:44.661Z,987.34
2018-01-18T05:01:20.913Z,987.28
2018-01-18T05:01:56.414Z,987.22
2018-01-18T05:02:31.835Z,987.20
2018-01-18T05:03:07.062Z,987.13
2018-01-18T05:03:42.184Z,987.10
2018-01-18T05:04:17.367Z,987.12
2018-01-18T05:04:56.885Z,987.12
2018-01-18T05:05:32.087Z,987.08
2018-01-18T05:06:07.709Z,986.94
2018-01-18T05:06:43.224Z,986.93
2018-01-18T05:07:18.463Z,986.98
2018-01-18T05:07:53.976Z,986.92
2018-01-18T05:08:29.291Z,986.83
2018-01-18T05:09:05.075Z,986.90
2018-01-18T05:09:41.301Z,986.84
2018-01-18T05:10:16.682Z,986.84
2018-01-18T05:10:53.399Z,986.78
2018-01-18T05:11:28.580Z,986.77
2018-01-18T05:12:04.001Z,986.73
2018-01-18T05:12:41.596Z,986.72
2018-01-18T05:13:17.041Z,986.66
2018-01-18T05:13:52.327Z,986.64
2018-01-18T05:14:27.641Z,986.59
2018-01-18T05:15:03.034Z,986.51
2018-01-18T05:15:39.139Z,986.63
2018-01-18T05:16:15.439Z,986.43
2018-01-18T05:16:51.361Z,986.47
2018-01-18T05:17:26.957Z,986.44
2018-01-18T05:18:02.605Z,986.36
2018-01-18T05:18:37.783Z,986.29
2018-01-18T05:19:13.108Z,986.22
2018-01-18T05:19:48.696Z,986.14
2018-01-18T05:20:24.104Z,986.15
2018-01-18T05:21:00.225Z,986.17
2018-01-18T05:21:35.861Z,985.97
2018-01-18T05:22:11.255Z,985.93
2018-01-18T05:22:46.781Z,986.02
2018-01-18T05:23:22.107Z,985.79
2018-01-18T05:23:57.323Z,985.88
2018-01-18T05:24:32.515Z,985.75
2018-01-18T05:25:07.933Z,985.72
2018-01-18T05:25:43.622Z,985.68
2018-01-18T05:26:19.139Z,985.72
2018-01-18T05:26:54.528Z,985.59
2018-01-18T05:27:29.651Z,985.54
2018-01-18T05:28:05.264Z,985.53
2018-01-18T05:28:41.053Z,985.45
2018-01-18T05:29:16.514Z,985.38
2018-01-18T05:29:51.836Z,985.37
2018-01-18T05:30:27.764Z,985.36
2018-01-18T05:31:02.373Z,985.44
2018-01-18T05:31:37.886Z,985.36
2018-01-18T05:32:13.100Z,985.32
2018-01-18T05:32:48.288Z,985.37
2018-01-18T05:33:23.643Z,985.35
2018-01-18T05:33:58.846Z,985.33
2018-01-18T05:34:34.373Z,985.32
2018-01-18T05:35:09.864Z,985.29
2018-01-18T05:35:45.274Z,985.29
2018-01-18T05:36:20.565Z,985.16
2018-01-18T05:36:56.290Z,985.30
2018-01-18T05:37:31.484Z,985.32
2018-01-18T05:38:06.611Z,985.26
2018-01-18T05:38:42.276Z,985.21
2018-01-18T05:39:17.702Z,985.24
2018-01-18T05:39:52.993Z,985.21
2018-01-18T05:40:28.322Z,985.20
2018-01-18T05:41:03.526Z,985.19
2018-01-18T05:41:39.958Z,985.03
2018-01-18T05:42:15.453Z,985.13
2018-01-18T05:42:50.987Z,985.02
2018-01-18T05:43:26.425Z,984.92
2018-01-18T05:44:01.849Z,984.95
2018-01-18T05:44:37.143Z,984.75
2018-01-18T05:45:12.561Z,984.64
2018-01-18T05:45:47.847Z,984.90
2018-01-18T05:46:24.768Z,984.63
2018-01-18T05:47:00.065Z,984.65
2018-01-18T05:47:35.484Z,984.43
2018-01-18T05:48:10.977Z,984.45
2018-01-18T05:48:46.325Z,984.34
2018-01-18T05:49:21.923Z,984.54
2018-01-18T05:49:57.063Z,984.38
2018-01-18T05:50:32.562Z,984.45
2018-01-18T05:51:08.189Z,984.47
2018-01-18T05:51:43.676Z,984.43
2018-01-18T05:52:19.403Z,984.51
2018-01-18T05:52:54.864Z,984.31
2018-01-18T05:53:30.108Z,984.31
2018-01-18T05:54:05.694Z,984.29
2018-01-18T05:54:41.615Z,984.36
2018-01-18T05:55:16.724Z,984.29
2018-01-18T05:55:52.040Z,984.22
2018-01-18T05:56:27.340Z,984.24
2018-01-18T05:57:02.771Z,984.14
2018-01-18T05:57:38.259Z,984.12
2018-01-18T05:58:13.591Z,984.00
2018-01-18T05:58:48.900Z,983.88
2018-01-18T05:59:24.230Z,983.90
2018-01-18T05:59:59.834Z,984.02
2018-01-18T06:00:35.062Z,983.99
2018-01-18T06:01:11.341Z,983.92
2018-01-18T06:01:46.864Z,983.85
2018-01-18T06:02:22.153Z,983.84
2018-01-18T06:02:57.569Z,983.78
2018-01-18T06:03:33.298Z,983.78
2018-01-18T06:04:08.720Z,983.71
2018-01-18T06:04:45.228Z,983.80
2018-01-18T06:05:20.538Z,983.62
2018-01-18T06:05:55.826Z,983.71
2018-01-18T06:06:31.346Z,983.53
2018-01-18T06:07:06.938Z,983.53
2018-01-18T06:07:42.458Z,983.42
2018-01-18T06:08:17.936Z,983.46
2018-01-18T06:08:53.181Z,983.34
2018-01-18T06:09:28.862Z,983.36
2018-01-18T06:10:04.179Z,983.31
2018-01-18T06:10:41.165Z,983.34
2018-01-18T06:11:16.490Z,983.30
2018-01-18T06:11:51.868Z,983.26
2018-01-18T06:12:27.386Z,983.14
2018-01-18T06:13:02.671Z,983.07
2018-01-18T06:13:38.177Z,983.04
2018-01-18T06:14:13.399Z,983.01
2018-01-18T06:14:48.715Z,983.07
2018-01-18T06:15:24.299Z,982.89
2018-01-18T06:15:59.532Z,982.94
2018-01-18T06:16:34.810Z,982.92
2018-01-18T06:17:10.133Z,982.86
2018-01-18T06:17:45.619Z,982.92
2018-01-18T06:18:20.927Z,982.80
2018-01-18T06:18:56.342Z,982.65
2018-01-18T06:19:31.509Z,982.70
2018-01-18T06:20:06.776Z,982.70
2018-01-18T06:20:43.299Z,982.57
2018-01-18T06:21:18.782Z,982.85
2018-01-18T06:21:53.991Z,982.52
2018-01-18T06:22:29.279Z,982.37
2018-01-18T06:23:05.133Z,982.46
2018-01-18T06:23:40.517Z,982.55
2018-01-18T06:24:16.058Z,982.47
2018-01-18T06:24:51.647Z,982.54
2018-01-18T06:25:26.971Z,982.35
2018-01-18T06:26:02.154Z,982.40
2018-01-18T06:26:37.476Z,982.42
2018-01-18T06:27:13.083Z,982.95
2018-01-18T06:27:48.597Z,982.30
2018-01-18T06:28:23.790Z,982.42
2018-01-18T06:28:59.421Z,982.31
2018-01-18T06:29:34.702Z,982.40
2018-01-18T06:30:10.210Z,982.19
2018-01-18T06:30:45.496Z,982.20
2018-01-18T06:31:20.910Z,982.21
2018-01-18T06:31:56.409Z,982.32
2018-01-18T06:32:31.827Z,982.24
2018-01-18T06:33:07.327Z,982.20
2018-01-18T06:33:42.633Z,982.14
2018-01-18T06:34:19.050Z,982.21
2018-01-18T06:34:54.565Z,982.21
2018-01-18T06:35:30.863Z,981.92
2018-01-18T06:36:06.171Z,981.85
2018-01-18T06:36:45.186Z,981.79
2018-01-18T06:37:20.603Z,981.75
2018-01-18T06:37:55.775Z,981.77
2018-01-18T06:38:31.294Z,981.80
2018-01-18T06:39:06.617Z,981.68
2018-01-18T06:39:42.112Z,981.86
2018-01-18T06:40:17.598Z,981.80
2018-01-18T06:40:54.312Z,981.67
2018-01-18T06:41:29.590Z,981.89
2018-01-18T06:42:04.909Z,981.79
2018-01-18T06:42:40.199Z,981.70
2018-01-18T06:43:15.702Z,981.92
2018-01-18T06:43:50.988Z,981.81
2018-01-18T06:44:26.523Z,981.82
2018-01-18T06:45:02.614Z,981.72
2018-01-18T06:45:37.725Z,981.82
2018-01-18T06:46:13.006Z,981.88
2018-01-18T06:46:48.413Z,981.77
2018-01-18T06:47:23.593Z,981.71
2018-01-18T06:48:00.506Z,981.68
2018-01-18T06:48:35.900Z,981.58
2018-01-18T06:49:12.058Z,981.49
2018-01-18T06:49:47.356Z,981.61
2018-01-18T06:50:22.874Z,981.56
2018-01-18T06:50:58.850Z,981.50
2018-01-18T06:51:34.436Z,981.47
2018-01-18T06:52:09.820Z,981.44
2018-01-18T06:52:44.827Z,981.46
2018-01-18T06:53:20.115Z,981.55
2018-01-18T06:53:55.733Z,981.44
2018-01-18T06:54:31.372Z,981.46
2018-01-18T06:55:06.785Z,981.48
2018-01-18T06:55:42.171Z,981.43
2018-01-18T06:56:17.840Z,981.44
2018-01-18T06:56:53.221Z,981.38
2018-01-18T06:57:28.437Z,981.19
2018-01-18T06:58:03.822Z,981.15
2018-01-18T06:58:39.139Z,981.17
2018-01-18T06:59:14.664Z,981.26
2018-01-18T06:59:50.173Z,981.17
2018-01-18T07:00:25.662Z,981.11
2018-01-18T07:01:00.985Z,981.04
2018-01-18T07:01:36.469Z,981.10
2018-01-18T07:02:11.780Z,980.98
2018-01-18T07:02:47.164Z,980.93
2018-01-18T07:03:22.482Z,980.96
2018-01-18T07:03:57.560Z,980.97
2018-01-18T07:04:32.990Z,980.89
2018-01-18T07:05:11.473Z,980.90
2018-01-18T07:05:46.812Z,980.82
2018-01-18T07:06:22.089Z,980.82
2018-01-18T07:06:57.321Z,980.89
2018-01-18T07:07:34.100Z,980.81
2018-01-18T07:08:09.331Z,980.67
2018-01-18T07:08:44.613Z,980.85
2018-01-18T07:09:19.952Z,980.83
2018-01-18T07:09:55.249Z,980.66
2018-01-18T07:10:30.458Z,980.72
2018-01-18T07:11:07.145Z,980.52
2018-01-18T07:11:42.451Z,980.54
2018-01-18T07:12:17.837Z,980.61
2018-01-18T07:12:53.560Z,980.51
2018-01-18T07:13:28.836Z,980.59
2018-01-18T07:14:04.155Z,980.60
2018-01-18T07:14:39.667Z,980.51
2018-01-18T07:15:15.299Z,980.44
2018-01-18T07:15:50.675Z,980.45
2018-01-18T07:16:26.083Z,980.30
2018-01-18T07:17:01.474Z,980.40
2018-01-18T07:17:37.286Z,980.44
2018-01-18T07:18:12.474Z,980.40
2018-01-18T07:18:47.727Z,980.12
2018-01-18T07:19:23.435Z,980.16
2018-01-18T07:19:59.039Z,980.25
2018-01-18T07:20:34.425Z,980.03
2018-01-18T07:21:09.635Z,980.05
2018-01-18T07:21:44.928Z,980.05
2018-01-18T07:22:20.264Z,979.94
2018-01-18T07:22:55.562Z,979.98